Latest Weather Observations for Adelaide

IDS60801

Issued at 1:01 pm CST Friday 4 September 2015 (issued every 30 minutes, with the page automatically refreshed every 10 minutes)

About weather observations | Map of weather stations | Latest weather observations for SA | Other Formats
Station Details ID: 023090 Name: KENT TOWN Lat: -34.92 Lon: 138.62 Height: 48.0 m
Data from the previous 72 hours. | See also: Recent months at Adelaide
Date/Time
CST
Temp
°C
App
Temp
°C
Dew
Point
Rel
Hum
%
Delta-T
°C
Wind Press
QNH
hPa
Press
MSL
hPa
Rain
since 9 am
mm
Dir
 
Spd
km/h
Gust
km/h
Spd
kts
Gust
kts
04/01:00pm 13.6 11.4 5.5 58 3.8 WSW 6 13 3 7 1026.6 - 0.0
04/12:30pm 13.8 11.2 4.4 53 4.3 NNW 7 13 4 7 1027.0 - 0.0
04/12:00pm 13.0 10.7 5.0 58 3.7 N 6 11 3 6 1027.1 1027.2 0.0
04/11:30am 12.6 9.8 5.2 60 3.4 E 9 13 5 7 1027.4 - 0.0
04/11:00am 12.4 9.6 5.2 61 3.3 SE 9 15 5 8 1027.8 - 0.0
04/10:30am 12.7 10.5 5.1 60 3.5 E 6 11 3 6 1028.1 - 0.0
04/10:00am 11.9 9.5 5.1 63 3.1 ENE 7 11 4 6 1028.5 - 0.0
04/09:30am 11.6 9.8 5.3 65 2.9 E 4 9 2 5 1028.6 - 0.0
04/09:00am 11.7 10.6 5.1 64 3.0 CALM 0 7 0 4 1028.7 1028.8 0.0
04/08:30am 10.0 9.2 6.3 78 1.7 CALM 0 6 0 3 1028.7 - 0.0
04/08:00am 9.4 8.1 6.1 80 1.5 SSE 2 7 1 4 1028.7 - 0.0
04/07:30am 8.3 7.0 6.1 86 1.0 S 2 7 1 4 1028.4 - 0.0
04/07:00am 6.8 5.9 5.9 94 0.4 CALM 0 0 0 0 1027.9 - 0.0
04/06:30am 6.7 5.7 5.8 94 0.4 CALM 0 0 0 0 1027.3 - 0.0
04/06:00am 7.0 6.0 5.6 91 0.6 CALM 0 0 0 0 1026.9 1027.0 0.0
04/05:30am 7.6 6.7 6.0 90 0.7 CALM 0 6 0 3 1026.7 - 0.0
04/05:00am 8.4 6.8 6.4 87 0.9 SE 4 9 2 5 1026.6 - 0.0
04/04:30am 9.0 7.5 6.6 85 1.1 SE 4 7 2 4 1026.6 - 0.0
04/04:00am 9.5 8.7 6.7 83 1.3 CALM 0 0 0 0 1026.6 - 0.0
04/03:30am 9.9 7.9 6.2 78 1.7 S 6 11 3 6 1026.7 - 0.0
04/03:00am 9.5 8.0 6.7 83 1.3 S 4 13 2 7 1026.6 1026.7 0.0
04/02:30am 9.8 9.1 7.0 83 1.3 CALM 0 0 0 0 1026.7 - 0.0
04/02:00am 9.9 9.3 7.4 84 1.2 CALM 0 0 0 0 1027.0 - 0.0
04/01:30am 9.7 8.6 7.1 84 1.2 S 2 7 1 4 1027.0 - 0.0
04/01:00am 9.1 7.3 7.2 88 0.9 SW 6 7 3 4 1027.0 - 0.0
04/12:30am 9.2 8.6 7.3 88 0.9 CALM 0 7 0 4 1026.9 - 0.0
04/12:00am 10.0 9.5 7.7 86 1.1 CALM 0 0 0 0 1026.8 1026.9 0.0
 
Date/Time
CST
Temp
°C
App
Temp
°C
Dew
Point
Rel
Hum
%
Delta-T
°C
Wind Press
QNH
hPa
Press
MSL
hPa
Rain
since 9 am
mm
Dir
 
Spd
km/h
Gust
km/h
Spd
kts
Gust
kts
03/11:30pm 11.1 9.3 7.3 77 1.8 S 6 9 3 5 1026.8 - 0.0
03/11:00pm 11.3 9.6 7.6 78 1.8 S 6 11 3 6 1026.8 - 0.0
03/10:30pm 11.4 10.2 7.9 79 1.7 SSW 4 7 2 4 1026.9 - 0.0
03/10:00pm 11.5 9.7 7.8 78 1.8 S 7 13 4 7 1026.6 - 0.0
03/09:30pm 11.5 9.6 7.6 77 1.9 S 7 9 4 5 1026.3 - 0.0
03/09:00pm 11.5 9.2 7.3 75 2.0 SSE 9 20 5 11 1026.1 1026.2 0.0
03/08:30pm 11.5 8.9 7.6 77 1.9 SSE 11 19 6 10 1025.9 - 0.0
03/08:00pm 11.9 10.1 8.0 77 1.9 SSE 7 13 4 7 1025.8 - 0.0
03/07:30pm 11.7 10.0 8.4 80 1.6 SW 7 11 4 6 1025.7 - 0.0
03/07:00pm 12.0 10.3 8.3 78 1.8 SSW 7 13 4 7 1025.2 - 0.0
03/06:30pm 12.4 10.3 8.3 76 2.0 SSW 9 17 5 9 1024.8 - 0.0
03/06:00pm 12.4 10.0 8.8 79 1.8 SSW 11 22 6 12 1024.4 1024.5 0.0
03/05:30pm 12.7 10.8 8.9 78 1.9 SSW 9 20 5 11 1024.1 - 0.0
03/05:00pm 13.4 10.8 9.5 77 2.0 SSW 13 22 7 12 1023.7 - 0.0
03/04:30pm 13.8 11.0 9.9 77 2.0 SW 15 28 8 15 1023.3 - 0.0
03/04:00pm 14.5 12.9 8.8 68 2.9 SSW 7 20 4 11 1022.9 - 0.0
03/03:30pm 14.8 12.3 8.2 64 3.3 S 11 20 6 11 1022.4 - 0.0
03/03:00pm 15.1 12.4 9.0 67 3.1 SSW 13 22 7 12 1022.0 1022.1 0.0
03/02:30pm 15.4 12.7 8.9 65 3.3 SSW 13 20 7 11 1021.8 - 0.0
03/02:00pm 15.1 13.1 8.8 66 3.2 SSW 9 17 5 9 1021.6 - 0.0
03/01:30pm 15.1 12.2 8.3 64 3.4 S 13 28 7 15 1021.5 - 0.0
03/01:00pm 15.1 12.4 9.0 67 3.1 SSW 13 28 7 15 1021.5 - 0.0
03/12:30pm 14.9 12.0 9.7 71 2.7 SSW 15 28 8 15 1021.6 - 0.0
03/12:00pm 14.4 12.4 10.0 75 2.3 SSW 11 20 6 11 1021.6 1021.7 0.0
03/11:30am 14.2 11.3 9.5 73 2.4 SSW 15 28 8 15 1021.5 - 0.0
03/11:00am 14.8 13.5 10.0 73 2.5 S 7 15 4 8 1021.3 - 0.0
03/10:30am 14.3 12.1 9.4 72 2.5 S 11 19 6 10 1020.9 - 0.0
03/10:00am 14.7 12.3 9.9 73 2.5 SSW 13 28 7 15 1020.6 - 0.0
03/09:30am 14.6 12.0 9.5 71 2.6 SSW 13 28 7 15 1020.2 - 0.0
03/09:00am 13.9 11.3 9.4 74 2.3 SSW 13 24 7 13 1019.9 1020.0 10.8
03/08:30am 12.8 10.8 10.1 84 1.4 SW 11 17 6 9 1019.3 - 10.8
03/08:00am 12.4 10.8 10.1 86 1.2 SW 9 17 5 9 1018.6 - 10.8
03/07:30am 11.9 10.3 10.1 89 0.9 SW 9 15 5 8 1017.7 - 10.8
03/07:00am 11.4 9.9 10.4 94 0.5 SSW 9 15 5 8 1017.1 - 10.8
03/06:30am 11.2 9.3 10.4 95 0.4 SW 11 17 6 9 1016.9 - 10.8
03/06:00am 10.6 9.5 9.8 95 0.4 SSW 6 9 3 5 1016.2 1016.3 10.8
03/05:30am 10.3 9.8 9.5 95 0.4 SE 2 7 1 4 1015.5 - 10.8
03/05:00am 10.2 10.0 9.2 93 0.5 CALM 0 0 0 0 1014.9 - 10.6
03/04:30am 10.2 10.0 9.0 92 0.6 CALM 0 0 0 0 1014.5 - 10.6
03/04:00am 10.1 9.1 8.9 92 0.6 SSW 4 7 2 4 1013.9 - 10.6
03/03:30am 10.0 8.6 8.8 92 0.6 WSW 6 9 3 5 1013.8 - 10.6
03/03:00am 9.9 8.5 8.7 92 0.6 WSW 6 9 3 5 1013.1 1013.1 10.6
03/02:30am 9.7 9.4 8.7 93 0.5 CALM 0 0 0 0 1012.7 - 10.6
03/02:00am 10.1 8.6 8.5 90 0.8 S 6 9 3 5 1012.4 - 10.6
03/01:30am 9.7 8.6 8.5 92 0.6 S 4 7 2 4 1012.4 - 10.6
03/01:00am 9.8 8.3 8.6 92 0.6 SSW 6 9 3 5 1012.1 - 10.6
03/12:30am 10.3 7.9 8.5 89 0.9 SW 11 20 6 11 1011.7 - 10.6
03/12:00am 9.9 7.4 8.3 90 0.8 WSW 11 17 6 9 1010.8 1010.9 10.6
 
Date/Time
CST
Temp
°C
App
Temp
°C
Dew
Point
Rel
Hum
%
Delta-T
°C
Wind Press
QNH
hPa
Press
MSL
hPa
Rain
since 9 am
mm
Dir
 
Spd
km/h
Gust
km/h
Spd
kts
Gust
kts
02/11:30pm 9.8 7.7 8.4 91 0.7 SW 9 13 5 7 1010.1 - 10.6
02/11:00pm 10.0 8.5 8.4 90 0.8 S 6 9 3 5 1009.8 - 10.6
02/10:30pm 10.2 8.4 8.1 87 1.0 SSW 7 11 4 6 1009.5 - 10.6
02/10:00pm 10.6 7.7 8.1 84 1.2 SSW 13 26 7 14 1009.2 - 10.6
02/09:30pm 10.0 7.6 8.6 91 0.7 SSW 11 19 6 10 1008.3 - 10.6
02/09:00pm 10.0 8.0 8.6 91 0.7 SW 9 15 5 8 1007.4 1007.5 10.6
02/08:30pm 10.0 7.5 8.4 90 0.8 SSW 11 17 6 9 1006.4 - 10.6
02/08:00pm 10.1 8.1 8.7 91 0.7 SSW 9 15 5 8 1005.2 - 10.6
02/07:30pm 10.2 8.3 9.0 92 0.6 SSW 9 13 5 7 1004.6 - 10.6
02/07:00pm 10.5 8.9 8.9 90 0.8 S 7 13 4 7 1003.7 - 10.4
02/06:30pm 10.7 8.8 9.1 90 0.8 S 9 15 5 8 1002.9 - 10.4
02/06:00pm 11.1 9.9 9.7 91 0.7 S 6 9 3 5 1002.0 1002.1 10.2
02/05:30pm 11.2 10.1 10.0 92 0.6 SSE 6 9 3 5 1001.0 - 9.8
02/05:00pm 11.2 10.1 10.0 92 0.6 E 6 15 3 8 1000.7 - 9.0
02/04:30pm 11.3 10.2 9.9 91 0.7 E 6 13 3 7 1000.6 - 8.0
02/04:00pm 11.3 9.6 9.9 91 0.7 ENE 9 15 5 8 1000.5 - 7.6
02/03:30pm 11.4 9.4 10.0 91 0.7 NE 11 22 6 12 1000.7 - 7.4
02/03:00pm 11.2 9.2 10.0 92 0.6 NNE 11 19 6 10 1001.0 1001.1 7.0
02/02:30pm 11.1 9.0 9.7 91 0.7 N 11 17 6 9 1001.2 - 5.4
02/02:00pm 11.1 9.3 9.5 90 0.8 N 9 17 5 9 1001.5 - 3.8
02/01:30pm 11.3 7.8 8.9 85 1.2 N 17 28 9 15 1001.9 - 2.4
02/01:00pm 11.8 8.4 9.0 83 1.4 NNW 17 28 9 15 1002.3 - 1.6
02/12:30pm 11.5 8.9 9.5 87 1.0 NNW 13 22 7 12 1002.8 - 1.4
02/12:00pm 13.0 9.3 8.0 71 2.5 N 17 30 9 16 1003.1 1003.2 0.4
02/11:30am 11.8 9.7 9.8 87 1.0 N 11 19 6 10 1003.6 - 0.4
02/11:00am 11.8 7.8 8.4 80 1.7 N 19 35 10 19 1004.3 - 0.0
02/10:30am 13.2 9.7 7.0 66 3.0 N 15 24 8 13 1004.3 - 0.0
02/10:00am 13.2 9.4 7.5 68 2.8 N 17 30 9 16 1004.8 - 0.0
02/09:30am 13.0 8.6 7.3 68 2.8 N 20 39 11 21 1005.3 - 0.0
02/09:00am 12.4 8.2 7.5 72 2.4 N 19 32 10 17 1005.6 1005.7 8.4
02/08:30am 11.7 7.5 7.4 75 2.1 N 19 35 10 19 1005.5 - 8.4
02/08:00am 10.8 7.4 7.5 80 1.6 N 15 24 8 13 1005.5 - 8.4
02/07:30am 10.6 7.2 7.5 81 1.5 N 15 24 8 13 1005.4 - 8.4
02/07:00am 10.7 7.3 7.6 81 1.5 N 15 24 8 13 1005.6 - 8.4
02/06:30am 10.8 8.1 7.5 80 1.6 N 11 17 6 9 1005.0 - 8.4
02/06:00am 10.9 7.5 7.8 81 1.5 N 15 26 8 14 1005.3 1005.4 8.4
02/05:30am 10.9 7.6 8.0 82 1.4 N 15 24 8 13 1005.3 - 8.4
02/05:00am 10.9 8.0 8.3 84 1.3 N 13 22 7 12 1005.4 - 8.4
02/04:30am 11.0 8.3 8.8 86 1.1 NNE 13 22 7 12 1005.6 - 8.2
02/04:00am 10.9 8.6 9.1 89 0.9 NE 11 19 6 10 1005.3 - 8.2
02/03:30am 10.8 8.6 9.2 90 0.8 NNE 11 19 6 10 1006.1 - 7.8
02/03:00am 11.0 9.1 9.0 87 1.0 NNE 9 15 5 8 1006.9 1007.0 7.2
02/02:30am 11.1 9.2 9.1 87 1.0 NE 9 19 5 10 1006.9 - 7.0
02/02:00am 11.1 8.5 9.3 89 0.9 NNE 13 22 7 12 1007.4 - 7.0
02/01:30am 10.9 9.5 9.5 91 0.7 NE 7 13 4 7 1007.8 - 6.6
02/01:00am 10.8 9.0 9.4 91 0.7 ENE 9 15 5 8 1007.8 - 6.2
02/12:30am 10.9 9.1 9.5 91 0.7 NE 9 15 5 8 1008.2 - 6.0
02/12:00am 11.3 8.7 9.3 87 1.0 NNE 13 19 7 10 1008.6 1008.7 4.0
 
Date/Time
CST
Temp
°C
App
Temp
°C
Dew
Point
Rel
Hum
%
Delta-T
°C
Wind Press
QNH
hPa
Press
MSL
hPa
Rain
since 9 am
mm
Dir
 
Spd
km/h
Gust
km/h
Spd
kts
Gust
kts
01/11:30pm 12.3 7.8 8.7 79 1.8 N 22 39 12 21 1008.5 - 1.4
01/11:00pm 13.7 11.5 7.9 68 2.9 NNE 9 20 5 11 1008.1 - 0.4
01/10:30pm 15.9 11.4 4.4 46 5.4 N 17 26 9 14 1008.3 - 0.0
01/10:00pm 16.2 11.8 2.8 40 6.1 NNE 15 30 8 16 1007.8 - 0.0
01/09:30pm 16.4 12.1 0.9 35 6.8 NNE 13 28 7 15 1007.6 - 0.0
01/09:00pm 16.5 12.2 1.0 35 6.8 NNE 13 22 7 12 1007.7 1007.8 0.0
01/08:30pm 16.7 12.2 0.0 32 7.2 NNE 13 30 7 16 1007.5 - 0.0
01/08:00pm 16.7 13.2 1.4 35 6.8 NE 9 17 5 9 1007.4 - 0.0
01/07:30pm 16.4 13.7 3.7 42 5.9 N 7 11 4 6 1007.6 - 0.0
01/07:00pm 17.2 13.9 2.2 36 6.8 NE 9 19 5 10 1007.3 - 0.0
01/06:30pm 17.1 14.3 3.0 39 6.5 NE 7 13 4 7 1007.2 - 0.0
01/06:00pm 17.1 14.0 3.6 40 6.3 NE 9 17 5 9 1007.6 1007.7 0.0
01/05:30pm 17.2 14.2 4.3 42 6.1 NNE 9 15 5 8 1007.9 - 0.0
01/05:00pm 17.2 14.6 4.3 42 6.1 NNE 7 11 4 6 1008.2 - 0.0
01/04:30pm 17.6 14.0 3.2 38 6.7 N 11 17 6 9 1008.5 - 0.0
01/04:00pm 17.7 12.9 2.4 36 7.0 N 17 26 9 14 1008.8 - 0.0
01/03:30pm 18.5 13.7 2.4 34 7.4 N 17 28 9 15 1009.1 - 0.0
01/03:00pm 18.7 13.4 1.8 32 7.7 N 19 28 10 15 1009.5 1009.6 0.0
01/02:30pm 18.5 14.3 1.7 32 7.6 NNW 13 22 7 12 1009.8 - 0.0
01/02:00pm 18.6 14.6 2.6 34 7.4 NNW 13 26 7 14 1010.2 - 0.0
01/01:30pm 18.9 15.5 4.0 37 7.1 N 11 19 6 10 1010.2 - 0.0

Other Formats:

Comma delimited format used in spreadsheet applications
http://www.bom.gov.au/fwo/IDS60801/IDS60801.94675.axf

JavaScript Object Notation format (JSON) in row-major order
http://www.bom.gov.au/fwo/IDS60801/IDS60801.94675.json